createdAt,value
2023-04-10T00:00:57.665Z,26.46
2023-04-10T00:02:39.680Z,25.31
2023-04-10T00:04:01.922Z,25.94
2023-04-10T00:05:45.220Z,25.86
2023-04-10T00:07:18.679Z,26.91
2023-04-10T00:09:03.559Z,27.55
2023-04-10T00:10:36.983Z,29.03
2023-04-10T00:11:59.024Z,28.53
2023-04-10T00:13:30.296Z,29.49
2023-04-10T00:15:16.177Z,27.27
2023-04-10T00:16:49.691Z,27.54
2023-04-10T00:18:21.327Z,26.25
2023-04-10T00:20:06.343Z,27.79
2023-04-10T00:21:54.489Z,27.74
2023-04-10T00:23:47.708Z,28.77
2023-04-10T00:25:40.657Z,27.73
2023-04-10T00:27:33.993Z,27.78
2023-04-10T00:29:14.329Z,27.48
2023-04-10T00:30:59.517Z,26.90
2023-04-10T00:32:54.244Z,26.06
2023-04-10T00:34:49.211Z,27.03
2023-04-10T00:36:43.214Z,27.33
2023-04-10T00:38:28.318Z,29.24
2023-04-10T00:40:23.265Z,28.23
2023-04-10T00:42:09.407Z,28.26
2023-04-10T00:43:50.405Z,28.56
2023-04-10T00:45:45.236Z,26.73
2023-04-10T00:47:39.218Z,27.68
2023-04-10T00:49:34.225Z,27.27
2023-04-10T00:51:29.233Z,28.47
2023-04-10T00:53:14.170Z,29.70
2023-04-10T00:54:47.709Z,27.41
2023-04-10T00:56:40.751Z,27.24
2023-04-10T00:58:14.252Z,27.02
2023-04-10T00:59:59.347Z,26.50
2023-04-10T01:04:02.965Z,27.38
2023-04-10T01:05:43.756Z,27.31
2023-04-10T01:07:12.899Z,27.22
2023-04-10T01:08:49.670Z,26.59
2023-04-10T01:10:13.878Z,25.98
2023-04-10T01:11:54.157Z,25.92
2023-04-10T01:13:45.218Z,24.78
2023-04-10T01:15:16.582Z,25.20
2023-04-10T01:16:53.097Z,26.42
2023-04-10T01:18:40.689Z,26.03
2023-04-10T01:20:30.321Z,24.74
2023-04-10T01:22:15.756Z,24.31
2023-04-10T01:24:01.574Z,24.93
2023-04-10T01:25:46.705Z,24.30
2023-04-10T01:27:40.358Z,24.71
2023-04-10T01:29:29.555Z,25.82
2023-04-10T01:31:10.134Z,26.56
2023-04-10T01:32:55.772Z,24.59
2023-04-10T01:34:51.269Z,24.55
2023-04-10T01:36:46.251Z,24.18
2023-04-10T01:38:31.208Z,24.13
2023-04-10T01:40:15.991Z,22.34
2023-04-10T01:41:59.242Z,22.26
2023-04-10T01:44:02.221Z,23.17
2023-04-10T01:45:57.370Z,23.64
2023-04-10T01:47:38.793Z,23.30
2023-04-10T01:49:12.156Z,23.30
2023-04-10T01:50:46.041Z,21.36
2023-04-10T01:52:19.560Z,22.53
2023-04-10T01:54:08.267Z,22.05
2023-04-10T01:55:53.649Z,23.51
2023-04-10T01:57:40.646Z,22.22
2023-04-10T01:59:13.866Z,23.19
2023-04-10T02:00:55.771Z,22.69
2023-04-10T02:02:40.979Z,21.49
2023-04-10T02:04:30.182Z,21.76
2023-04-10T02:06:15.026Z,21.61
2023-04-10T02:08:00.272Z,21.64
2023-04-10T02:09:36.134Z,21.95
2023-04-10T02:11:21.315Z,22.97
2023-04-10T02:12:56.569Z,20.97
2023-04-10T02:14:30.094Z,21.81
2023-04-10T02:16:07.776Z,22.53
2023-04-10T02:17:43.638Z,20.43
2023-04-10T02:19:19.480Z,22.96
2023-04-10T02:21:00.316Z,20.44
2023-04-10T02:22:25.686Z,21.58
2023-04-10T02:24:10.749Z,21.79
2023-04-10T02:25:56.561Z,23.23
2023-04-10T02:27:20.574Z,22.81
2023-04-10T02:28:53.999Z,22.89
2023-04-10T02:30:39.405Z,21.46
2023-04-10T02:32:34.273Z,22.39
2023-04-10T02:34:19.097Z,22.12
2023-04-10T02:36:05.356Z,22.92
2023-04-10T02:38:00.226Z,24.03
2023-04-10T02:39:54.216Z,22.83
2023-04-10T02:41:39.730Z,22.08
2023-04-10T02:43:24.990Z,21.70
2023-04-10T02:44:49.956Z,21.68
2023-04-10T02:46:26.118Z,22.42
2023-04-10T02:48:10.941Z,22.90
2023-04-10T02:49:57.090Z,23.27
2023-04-10T02:51:50.785Z,21.94
2023-04-10T02:53:36.254Z,22.02
2023-04-10T02:55:11.815Z,22.45
2023-04-10T02:56:55.037Z,22.41
2023-04-10T02:58:30.542Z,21.45
2023-04-10T03:00:06.630Z,22.04
2023-04-10T03:01:51.469Z,22.73
2023-04-10T03:03:16.491Z,21.32
2023-04-10T03:05:08.328Z,22.51
2023-04-10T03:06:44.163Z,21.40
2023-04-10T03:08:38.548Z,23.10
2023-04-10T03:10:14.221Z,21.16
2023-04-10T03:11:47.702Z,21.99
2023-04-10T03:13:23.280Z,21.24
2023-04-10T03:15:08.244Z,20.77
2023-04-10T03:16:50.953Z,23.35
2023-04-10T03:20:55.268Z,20.75
2023-04-10T03:22:48.868Z,21.12
2023-04-10T03:24:29.838Z,20.95
2023-04-10T03:26:05.941Z,21.10
2023-04-10T03:27:39.132Z,20.96
2023-04-10T03:29:19.919Z,21.93
2023-04-10T03:31:04.741Z,21.81
2023-04-10T03:33:01.040Z,21.46
2023-04-10T03:34:37.139Z,20.12
2023-04-10T03:36:31.171Z,20.87
2023-04-10T03:38:16.551Z,21.95
2023-04-10T03:39:41.713Z,21.40
2023-04-10T03:41:15.413Z,22.16
2023-04-10T03:43:00.697Z,22.55
2023-04-10T03:44:47.532Z,21.09
2023-04-10T03:46:32.804Z,20.84
2023-04-10T03:48:06.958Z,20.56
2023-04-10T03:49:54.636Z,21.14
2023-04-10T03:51:44.323Z,22.59
2023-04-10T03:53:32.922Z,23.64
2023-04-10T03:55:19.621Z,22.56
2023-04-10T03:57:02.212Z,22.05
2023-04-10T03:58:24.049Z,21.89
2023-04-10T04:00:09.233Z,21.20
2023-04-10T04:01:43.048Z,22.39
2023-04-10T04:03:28.120Z,20.27
2023-04-10T04:05:30.822Z,21.56
2023-04-10T04:07:51.470Z,20.60
2023-04-10T04:09:42.313Z,21.49
2023-04-10T04:11:45.338Z,20.38
2023-04-10T04:13:37.402Z,19.91
2023-04-10T04:15:49.973Z,20.21
2023-04-10T04:17:31.642Z,20.06
2023-04-10T04:19:20.963Z,19.24
2023-04-10T04:21:27.334Z,19.19
2023-04-10T04:23:21.095Z,18.94
2023-04-10T04:25:26.466Z,18.49
2023-04-10T04:27:31.000Z,19.45
2023-04-10T04:29:29.229Z,18.30
2023-04-10T04:31:51.025Z,20.11
2023-04-10T04:33:51.612Z,19.67
2023-04-10T04:35:32.577Z,20.03
2023-04-10T04:37:44.184Z,18.80
2023-04-10T04:39:27.615Z,17.65
2023-04-10T04:41:21.576Z,17.99
2023-04-10T04:43:36.965Z,18.00
2023-04-10T04:45:24.795Z,18.11
2023-04-10T04:47:20.253Z,18.53
2023-04-10T04:48:53.604Z,18.70
2023-04-10T04:50:48.092Z,18.46
2023-04-10T04:52:49.395Z,17.59
2023-04-10T04:54:23.568Z,17.68
2023-04-10T04:56:32.296Z,18.36
2023-04-10T04:58:20.448Z,18.20
2023-04-10T05:00:00.894Z,19.04
2023-04-10T05:02:03.502Z,18.47
2023-04-10T05:04:01.567Z,17.33
2023-04-10T05:06:11.117Z,17.19
2023-04-10T05:07:52.841Z,17.74
2023-04-10T05:09:45.381Z,17.25
2023-04-10T05:11:25.786Z,17.11
2023-04-10T05:13:25.663Z,18.15
2023-04-10T05:15:10.037Z,17.95
2023-04-10T05:16:39.619Z,17.83
2023-04-10T05:18:57.292Z,17.95
2023-04-10T05:21:10.949Z,17.32
2023-04-10T05:22:53.412Z,16.88
2023-04-10T05:24:55.149Z,18.48
2023-04-10T05:26:48.046Z,19.18
2023-04-10T05:28:48.414Z,17.86
2023-04-10T05:30:46.238Z,17.02
2023-04-10T05:32:54.844Z,17.73
2023-04-10T05:34:30.997Z,17.88
2023-04-10T05:36:06.182Z,17.65
2023-04-10T05:37:49.746Z,17.66
2023-04-10T05:40:13.705Z,19.52
2023-04-10T05:42:00.122Z,19.40
2023-04-10T05:43:55.675Z,20.17
2023-04-10T05:46:24.836Z,19.11
2023-04-10T05:48:33.958Z,20.96
2023-04-10T05:50:24.159Z,54.45
2023-04-10T05:51:54.189Z,52.47
2023-04-10T05:53:39.073Z,29.20
2023-04-10T05:55:40.016Z,19.36
2023-04-10T05:58:00.167Z,17.93
2023-04-10T06:00:05.739Z,18.23
2023-04-10T06:01:39.001Z,17.78
2023-04-10T06:03:24.544Z,17.95
2023-04-10T06:05:01.843Z,23.46
2023-04-10T06:06:37.617Z,23.14
2023-04-10T06:08:22.791Z,27.88
2023-04-10T06:10:03.375Z,18.60
2023-04-10T06:11:39.576Z,18.19
2023-04-10T06:13:24.686Z,20.92
2023-04-10T06:15:02.569Z,21.11
2023-04-10T06:16:39.798Z,20.06
2023-04-10T06:18:24.742Z,20.42
2023-04-10T06:20:10.006Z,26.02
2023-04-10T06:21:46.759Z,22.44
2023-04-10T06:23:31.799Z,19.39
2023-04-10T06:25:01.101Z,21.17
2023-04-10T06:26:46.610Z,21.12
2023-04-10T06:28:27.482Z,23.99
2023-04-10T06:29:58.511Z,20.22
2023-04-10T06:31:31.970Z,22.27
2023-04-10T06:33:01.075Z,18.55
2023-04-10T06:34:35.400Z,20.11
2023-04-10T06:36:22.281Z,19.62
2023-04-10T06:38:02.364Z,19.53
2023-04-10T06:39:43.739Z,24.37
2023-04-10T06:41:17.553Z,24.43
2023-04-10T06:42:53.281Z,19.62
2023-04-10T06:44:34.727Z,18.08
2023-04-10T06:46:19.893Z,18.12
2023-04-10T06:47:55.317Z,16.64
2023-04-10T06:49:39.142Z,16.92
2023-04-10T06:51:03.551Z,18.02
2023-04-10T06:52:58.301Z,17.18
2023-04-10T06:54:40.432Z,19.09
2023-04-10T06:56:16.303Z,19.70
2023-04-10T06:58:01.818Z,19.07
2023-04-10T06:59:35.727Z,18.50
2023-04-10T07:01:09.249Z,17.66
2023-04-10T07:02:45.964Z,17.57
2023-04-10T07:04:31.094Z,18.67
2023-04-10T07:06:12.102Z,17.93
2023-04-10T07:07:52.959Z,20.12
2023-04-10T07:09:29.294Z,20.62
2023-04-10T07:11:01.291Z,19.00
2023-04-10T07:12:43.307Z,18.48
2023-04-10T07:14:24.337Z,17.58
2023-04-10T07:15:57.703Z,18.70
2023-04-10T07:17:31.266Z,18.08
2023-04-10T07:19:11.946Z,18.28
2023-04-10T07:20:52.437Z,19.65
2023-04-10T07:22:26.448Z,20.66
2023-04-10T07:23:57.980Z,20.86
2023-04-10T07:25:43.458Z,19.63
2023-04-10T07:27:28.757Z,19.48
2023-04-10T07:29:23.291Z,19.81
2023-04-10T07:31:03.419Z,18.92
2023-04-10T07:32:49.573Z,20.45
2023-04-10T07:34:25.751Z,18.65
2023-04-10T07:36:10.625Z,19.38
2023-04-10T07:37:54.656Z,18.50
2023-04-10T07:39:33.481Z,18.99
2023-04-10T07:41:22.689Z,17.13
2023-04-10T07:42:53.827Z,15.20
2023-04-10T07:44:39.144Z,16.38
2023-04-10T07:46:08.146Z,16.69
2023-04-10T07:47:37.362Z,19.53
2023-04-10T07:49:13.673Z,19.03
2023-04-10T07:50:54.393Z,19.36
2023-04-10T07:52:49.275Z,17.11
2023-04-10T07:54:37.621Z,16.38
2023-04-10T07:56:13.042Z,17.18
2023-04-10T07:57:58.291Z,16.38
2023-04-10T07:59:34.058Z,15.87
2023-04-10T08:00:59.953Z,15.85
2023-04-10T08:02:44.824Z,16.62
2023-04-10T08:04:30.100Z,15.05
2023-04-10T08:06:01.328Z,16.47
2023-04-10T08:07:36.418Z,15.96
2023-04-10T08:09:05.330Z,15.33
2023-04-10T08:10:39.248Z,16.04
2023-04-10T08:12:21.736Z,15.34
2023-04-10T08:14:07.028Z,16.07
2023-04-10T08:15:33.974Z,16.94
2023-04-10T08:17:18.985Z,15.23
2023-04-10T08:19:04.419Z,16.16
2023-04-10T08:20:37.867Z,16.96
2023-04-10T08:22:21.433Z,16.43
2023-04-10T08:24:06.820Z,18.15
2023-04-10T08:25:48.014Z,17.45
2023-04-10T08:27:26.858Z,16.24
2023-04-10T08:28:50.146Z,14.73
2023-04-10T08:30:23.258Z,13.74
2023-04-10T08:32:08.049Z,14.04
2023-04-10T08:33:49.859Z,15.01
2023-04-10T08:35:25.653Z,15.47
2023-04-10T08:36:54.914Z,16.12
2023-04-10T08:38:28.383Z,17.71
2023-04-10T08:40:13.083Z,13.70
2023-04-10T08:41:48.834Z,13.69
2023-04-10T08:43:22.129Z,14.40
2023-04-10T08:44:52.195Z,14.15
2023-04-10T08:46:32.729Z,13.89
2023-04-10T08:48:13.223Z,15.73
2023-04-10T08:49:54.308Z,14.45
2023-04-10T08:51:39.743Z,14.37
2023-04-10T08:53:13.184Z,13.51
2023-04-10T08:54:58.314Z,13.97
2023-04-10T08:56:45.701Z,12.63
2023-04-10T08:58:27.084Z,12.22
2023-04-10T09:01:51.785Z,12.12
2023-04-10T09:03:23.672Z,11.91
2023-04-10T09:05:08.901Z,12.10
2023-04-10T09:06:51.143Z,12.35
2023-04-10T09:08:45.354Z,12.68
2023-04-10T09:10:30.310Z,13.32
2023-04-10T09:12:16.062Z,12.69
2023-04-10T09:14:01.296Z,11.55
2023-04-10T09:15:56.311Z,10.72
2023-04-10T09:17:29.843Z,10.99
2023-04-10T09:19:10.800Z,10.38
2023-04-10T09:20:46.780Z,10.69
2023-04-10T09:22:20.665Z,12.18
2023-04-10T09:23:55.904Z,12.81
2023-04-10T09:25:42.112Z,13.44
2023-04-10T09:27:15.087Z,10.91
2023-04-10T09:28:51.112Z,11.47
2023-04-10T09:30:25.063Z,11.98
2023-04-10T09:31:58.557Z,12.86
2023-04-10T09:33:24.947Z,12.07
2023-04-10T09:34:59.348Z,12.36
2023-04-10T09:36:46.409Z,12.67
2023-04-10T09:38:28.093Z,11.95
2023-04-10T09:40:12.926Z,10.44
2023-04-10T09:41:58.077Z,11.08
2023-04-10T09:43:45.441Z,11.80
2023-04-10T09:45:35.233Z,12.08
2023-04-10T09:47:30.252Z,11.42
2023-04-10T09:48:53.924Z,10.91
2023-04-10T09:50:28.311Z,12.61
2023-04-10T09:52:13.649Z,12.95
2023-04-10T09:53:49.140Z,12.27
2023-04-10T09:55:29.900Z,11.22
2023-04-10T09:57:14.647Z,10.02
2023-04-10T09:59:00.055Z,10.61
2023-04-10T10:00:40.619Z,10.09
2023-04-10T10:02:26.022Z,10.99
2023-04-10T10:04:20.262Z,11.48
2023-04-10T10:06:05.189Z,10.00
2023-04-10T10:07:58.574Z,9.45
2023-04-10T10:09:35.247Z,10.02
2023-04-10T10:11:21.677Z,8.89
2023-04-10T10:12:54.926Z,8.35
2023-04-10T10:14:40.746Z,8.51
2023-04-10T10:16:17.539Z,8.20
2023-04-10T10:18:03.156Z,7.46
2023-04-10T10:19:53.944Z,8.03
2023-04-10T10:21:39.767Z,8.02
2023-04-10T10:23:15.463Z,7.68
2023-04-10T10:25:00.592Z,8.51
2023-04-10T10:26:43.221Z,7.98
2023-04-10T10:28:37.245Z,9.85
2023-04-10T10:30:28.033Z,9.44
2023-04-10T10:32:22.747Z,7.72
2023-04-10T10:34:08.243Z,7.26
2023-04-10T10:35:41.684Z,7.85
2023-04-10T10:37:36.268Z,7.86
2023-04-10T10:39:09.361Z,8.21
2023-04-10T10:40:50.420Z,7.51
2023-04-10T10:42:35.262Z,8.70
2023-04-10T10:44:08.453Z,9.33
2023-04-10T10:45:58.553Z,9.60
2023-04-10T10:47:34.198Z,10.38
2023-04-10T10:49:03.152Z,9.17
2023-04-10T10:50:53.513Z,10.37
2023-04-10T10:52:34.504Z,8.73
2023-04-10T10:54:19.341Z,9.94
2023-04-10T10:56:00.016Z,9.03
2023-04-10T10:57:45.132Z,8.15
2023-04-10T10:59:06.720Z,7.51
2023-04-10T11:00:54.338Z,7.27
2023-04-10T11:02:35.300Z,7.70
2023-04-10T11:04:20.853Z,7.02
2023-04-10T11:06:08.888Z,7.28
2023-04-10T11:08:02.361Z,7.29
2023-04-10T11:09:38.289Z,8.47
2023-04-10T11:11:23.502Z,8.34
2023-04-10T11:13:08.933Z,7.56
2023-04-10T11:15:03.244Z,6.44
2023-04-10T11:16:44.770Z,6.15
2023-04-10T11:18:32.973Z,5.92
2023-04-10T11:20:26.308Z,6.76
2023-04-10T11:21:48.434Z,7.49
2023-04-10T11:23:24.075Z,6.96
2023-04-10T11:25:11.888Z,7.70
2023-04-10T11:26:57.048Z,6.88
2023-04-10T11:28:42.044Z,6.72
2023-04-10T11:30:13.106Z,6.60
2023-04-10T11:31:58.340Z,6.31
2023-04-10T11:33:53.264Z,6.41
2023-04-10T11:35:47.405Z,7.01
2023-04-10T11:37:32.563Z,6.56
2023-04-10T11:39:26.264Z,6.03
2023-04-10T11:41:07.017Z,6.31
2023-04-10T11:42:54.821Z,6.71
2023-04-10T11:44:36.497Z,6.60
2023-04-10T11:46:17.183Z,6.64
2023-04-10T11:48:03.507Z,6.82
2023-04-10T11:49:36.936Z,7.08
2023-04-10T11:51:09.874Z,7.21
2023-04-10T11:54:38.980Z,7.62
2023-04-10T11:56:24.082Z,7.70
2023-04-10T11:57:48.092Z,8.04
2023-04-10T11:59:22.516Z,7.27
2023-04-10T12:00:46.841Z,6.97
2023-04-10T12:02:19.808Z,6.99
2023-04-10T12:03:55.493Z,7.50
2023-04-10T12:05:24.990Z,7.80
2023-04-10T12:07:09.771Z,8.05
2023-04-10T12:08:55.188Z,7.59
2023-04-10T12:10:43.517Z,7.38
2023-04-10T12:12:26.368Z,8.16
2023-04-10T12:14:14.337Z,7.47
2023-04-10T12:15:55.364Z,7.63
2023-04-10T12:17:36.142Z,7.81
2023-04-10T12:19:21.241Z,7.11
2023-04-10T12:21:06.123Z,6.33
2023-04-10T12:22:53.003Z,6.57
2023-04-10T12:24:28.733Z,6.37
2023-04-10T12:26:02.256Z,6.76
2023-04-10T12:27:47.823Z,6.39
2023-04-10T12:29:42.256Z,6.56
2023-04-10T12:31:27.373Z,7.05
2023-04-10T12:33:19.543Z,6.42
2023-04-10T12:35:04.322Z,6.82
2023-04-10T12:36:40.229Z,6.77
2023-04-10T12:38:25.338Z,6.95
2023-04-10T12:40:00.980Z,8.03
2023-04-10T12:41:46.256Z,7.78
2023-04-10T12:43:32.282Z,8.16
2023-04-10T12:45:26.252Z,7.79
2023-04-10T12:46:53.029Z,7.72
2023-04-10T12:48:26.540Z,6.99
2023-04-10T12:50:11.567Z,6.74
2023-04-10T12:51:48.201Z,6.98
2023-04-10T12:53:33.257Z,7.36
2023-04-10T12:55:06.315Z,7.82
2023-04-10T12:56:42.211Z,7.43
2023-04-10T12:58:30.030Z,7.86
2023-04-10T13:00:10.370Z,7.89
2023-04-10T13:02:00.318Z,7.65
2023-04-10T13:03:36.601Z,7.77
2023-04-10T13:05:31.270Z,8.06
2023-04-10T13:07:16.343Z,7.65
2023-04-10T13:09:00.988Z,10.09
2023-04-10T13:10:55.154Z,8.38
2023-04-10T13:12:48.636Z,7.28
2023-04-10T13:14:21.805Z,7.40
2023-04-10T13:15:55.607Z,6.92
2023-04-10T13:17:46.407Z,7.07
2023-04-10T13:19:31.232Z,7.11
2023-04-10T13:21:06.173Z,7.29
2023-04-10T13:23:01.262Z,7.62
2023-04-10T13:24:37.230Z,7.41
2023-04-10T13:26:03.452Z,7.04
2023-04-10T13:27:48.515Z,6.32
2023-04-10T13:29:31.263Z,6.53
2023-04-10T13:31:17.264Z,6.47
2023-04-10T13:32:50.929Z,5.61
2023-04-10T13:34:45.289Z,6.05
2023-04-10T13:36:08.797Z,6.36
2023-04-10T13:38:03.292Z,6.40
2023-04-10T13:39:58.307Z,6.13
2023-04-10T13:41:53.304Z,6.62
2023-04-10T13:43:34.073Z,6.81
2023-04-10T13:45:14.247Z,6.81
2023-04-10T13:46:59.259Z,6.42
2023-04-10T13:48:54.289Z,6.45
2023-04-10T13:50:39.445Z,7.32
2023-04-10T13:52:19.936Z,6.81
2023-04-10T13:54:04.806Z,6.70
2023-04-10T13:55:58.496Z,7.13
2023-04-10T13:57:32.271Z,6.74
2023-04-10T13:59:25.253Z,6.88
2023-04-10T14:01:10.774Z,6.57
2023-04-10T14:02:52.049Z,6.81
2023-04-10T14:04:32.598Z,6.43
2023-04-10T14:06:17.792Z,6.81
2023-04-10T14:08:03.499Z,6.63
2023-04-10T14:09:25.060Z,7.16
2023-04-10T14:10:58.096Z,6.28
2023-04-10T14:12:31.898Z,6.44
2023-04-10T14:14:12.329Z,12.91
2023-04-10T14:15:45.789Z,8.98
2023-04-10T14:17:09.508Z,13.42
2023-04-10T14:18:43.224Z,6.09
2023-04-10T14:20:16.352Z,5.54
2023-04-10T14:21:52.414Z,6.04
2023-04-10T14:23:29.904Z,5.94
2023-04-10T14:25:15.559Z,5.97
2023-04-10T14:27:00.618Z,5.70
2023-04-10T14:28:46.152Z,5.85
2023-04-10T14:30:30.839Z,5.56
2023-04-10T14:32:00.205Z,5.70
2023-04-10T14:33:46.973Z,5.19
2023-04-10T14:35:20.416Z,4.92
2023-04-10T14:37:06.268Z,5.39
2023-04-10T14:38:41.950Z,5.68
2023-04-10T14:40:08.331Z,5.31
2023-04-10T14:41:42.129Z,5.57
2023-04-10T14:43:22.359Z,5.13
2023-04-10T14:45:06.775Z,5.14
2023-04-10T14:47:01.316Z,4.83
2023-04-10T14:48:56.346Z,4.81
2023-04-10T14:50:38.265Z,5.43
2023-04-10T14:52:32.293Z,5.16
2023-04-10T14:54:06.298Z,5.17
2023-04-10T14:55:42.140Z,5.41
2023-04-10T14:57:15.765Z,4.96
2023-04-10T14:58:49.129Z,5.53
2023-04-10T15:00:34.289Z,4.99
2023-04-10T15:02:15.645Z,5.41
2023-04-10T15:03:57.711Z,4.92
2023-04-10T15:05:44.516Z,5.28
2023-04-10T15:07:39.295Z,5.46
2023-04-10T15:09:12.609Z,5.38
2023-04-10T15:10:58.809Z,5.20
2023-04-10T15:12:25.114Z,5.53
2023-04-10T15:13:59.982Z,5.36
2023-04-10T15:15:24.525Z,5.92
2023-04-10T15:16:57.591Z,5.48
2023-04-10T15:18:40.334Z,5.34
2023-04-10T15:20:09.497Z,5.36
2023-04-10T15:21:50.971Z,5.56
2023-04-10T15:23:26.831Z,5.56
2023-04-10T15:25:11.875Z,5.42
2023-04-10T15:26:41.755Z,5.04
2023-04-10T15:28:17.300Z,5.48
2023-04-10T15:29:41.512Z,5.39
2023-04-10T15:31:30.460Z,4.88
2023-04-10T15:33:04.043Z,5.07
2023-04-10T15:34:59.304Z,4.66
2023-04-10T15:36:32.995Z,4.81
2023-04-10T15:38:06.491Z,4.90
2023-04-10T15:39:53.304Z,5.37
2023-04-10T15:41:33.934Z,6.27
2023-04-10T15:43:14.569Z,6.52
2023-04-10T15:45:00.046Z,5.73
2023-04-10T15:46:44.248Z,5.64
2023-04-10T15:48:29.506Z,6.65
2023-04-10T15:50:14.110Z,6.33
2023-04-10T15:51:46.729Z,6.03
2023-04-10T15:53:35.750Z,5.94
2023-04-10T15:54:59.721Z,5.94
2023-04-10T15:56:54.220Z,6.38
2023-04-10T15:58:25.714Z,6.62
2023-04-10T15:59:49.756Z,6.46
2023-04-10T16:01:22.644Z,6.83
2023-04-10T16:02:45.185Z,6.38
2023-04-10T16:04:19.193Z,6.72
2023-04-10T16:06:04.544Z,7.03
2023-04-10T16:07:47.302Z,6.63
2023-04-10T16:09:40.955Z,6.37
2023-04-10T16:11:26.121Z,5.92
2023-04-10T16:13:04.128Z,6.28
2023-04-10T16:14:49.778Z,6.60
2023-04-10T16:16:44.318Z,6.38
2023-04-10T16:18:38.661Z,6.59
2023-04-10T16:20:19.342Z,6.56
2023-04-10T16:22:00.284Z,7.54
2023-04-10T16:23:48.546Z,6.50
2023-04-10T16:25:21.916Z,7.33
2023-04-10T16:27:08.341Z,6.70
2023-04-10T16:28:42.761Z,10.07
2023-04-10T16:30:15.856Z,8.26
2023-04-10T16:31:50.180Z,6.93
2023-04-10T16:33:35.443Z,6.22
2023-04-10T16:35:08.672Z,6.50
2023-04-10T16:36:44.270Z,7.19
2023-04-10T16:38:18.141Z,6.44
2023-04-10T16:39:40.610Z,6.75
2023-04-10T16:41:25.542Z,6.97
2023-04-10T16:43:02.065Z,6.50
2023-04-10T16:44:38.292Z,7.01
2023-04-10T16:46:11.709Z,6.69
2023-04-10T16:47:53.047Z,6.86
2023-04-10T16:49:28.132Z,7.23
2023-04-10T16:51:17.345Z,6.98
2023-04-10T16:52:58.965Z,7.15
2023-04-10T16:54:44.787Z,7.60
2023-04-10T16:56:37.217Z,6.72
2023-04-10T16:58:12.402Z,6.58
2023-04-10T17:00:02.306Z,6.72
2023-04-10T17:01:28.838Z,7.06
2023-04-10T17:03:04.485Z,7.29
2023-04-10T17:04:28.779Z,6.86
2023-04-10T17:06:13.731Z,6.79
2023-04-10T17:07:59.155Z,7.26
2023-04-10T17:11:40.714Z,6.74
2023-04-10T17:13:25.313Z,6.81
2023-04-10T17:15:10.071Z,7.26
2023-04-10T17:16:51.688Z,6.67
2023-04-10T17:18:25.142Z,6.94
2023-04-10T17:19:59.098Z,7.53
2023-04-10T17:21:33.478Z,6.65
2023-04-10T17:23:06.986Z,6.76
2023-04-10T17:24:40.766Z,7.19
2023-04-10T17:26:21.460Z,7.61
2023-04-10T17:28:07.025Z,7.19
2023-04-10T17:29:49.866Z,7.39
2023-04-10T17:31:23.288Z,8.12
2023-04-10T17:32:48.569Z,7.53
2023-04-10T17:34:29.568Z,7.29
2023-04-10T17:36:03.556Z,7.49
2023-04-10T17:37:40.139Z,8.34
2023-04-10T17:39:06.778Z,7.69
2023-04-10T17:40:43.040Z,7.81
2023-04-10T17:42:36.837Z,8.22
2023-04-10T17:44:10.497Z,7.65
2023-04-10T17:45:32.536Z,7.74
2023-04-10T17:47:07.825Z,7.49
2023-04-10T17:48:44.059Z,7.64
2023-04-10T17:50:38.323Z,7.77
2023-04-10T17:51:59.806Z,7.70
2023-04-10T17:53:24.605Z,7.69
2023-04-10T17:55:09.693Z,8.41
2023-04-10T17:56:45.667Z,8.42
2023-04-10T17:58:21.444Z,9.03
2023-04-10T17:59:45.928Z,8.51
2023-04-10T18:01:32.867Z,8.99
2023-04-10T18:03:18.015Z,8.51
2023-04-10T18:05:03.387Z,8.24
2023-04-10T18:06:59.357Z,7.65
2023-04-10T18:08:35.582Z,8.47
2023-04-10T18:10:11.046Z,8.19
2023-04-10T18:11:47.772Z,8.97
2023-04-10T18:13:11.848Z,8.66
2023-04-10T18:14:48.453Z,9.73
2023-04-10T18:16:34.029Z,10.62
2023-04-10T18:18:19.126Z,10.68
2023-04-10T18:20:04.416Z,11.43
2023-04-10T18:21:49.701Z,11.94
2023-04-10T18:23:25.028Z,13.37
2023-04-10T18:24:47.441Z,13.08
2023-04-10T18:26:21.364Z,13.73
2023-04-10T18:28:12.929Z,14.80
2023-04-10T18:29:48.611Z,14.18
2023-04-10T18:31:26.325Z,14.45
2023-04-10T18:33:08.416Z,14.29
2023-04-10T18:35:05.357Z,12.92
2023-04-10T18:36:50.657Z,13.48
2023-04-10T18:38:24.420Z,11.97
2023-04-10T18:39:55.466Z,12.43
2023-04-10T18:41:42.427Z,11.69
2023-04-10T18:43:27.836Z,11.38
2023-04-10T18:45:12.884Z,11.21
2023-04-10T18:47:03.780Z,10.47
2023-04-10T18:48:56.349Z,10.45
2023-04-10T18:50:32.567Z,10.74
2023-04-10T18:51:55.044Z,10.85
2023-04-10T18:53:49.286Z,10.60
2023-04-10T18:55:26.316Z,9.16
2023-04-10T18:57:11.659Z,9.96
2023-04-10T18:58:54.503Z,9.51
2023-04-10T19:00:49.334Z,10.17
2023-04-10T19:02:25.993Z,10.15
2023-04-10T19:04:20.422Z,10.03
2023-04-10T19:05:57.226Z,10.30
2023-04-10T19:07:49.781Z,9.69
2023-04-10T19:09:23.439Z,10.78
2023-04-10T19:10:47.740Z,9.95
2023-04-10T19:12:40.008Z,10.77
2023-04-10T19:14:13.960Z,10.67
2023-04-10T19:15:48.076Z,9.81
2023-04-10T19:17:25.171Z,10.80
2023-04-10T19:19:10.287Z,12.47
2023-04-10T19:20:50.700Z,15.73
2023-04-10T19:22:47.361Z,18.50
2023-04-10T19:24:28.406Z,17.55
2023-04-10T19:26:02.036Z,18.70
2023-04-10T19:27:36.104Z,20.55
2023-04-10T19:29:24.688Z,20.74
2023-04-10T19:30:49.650Z,20.35
2023-04-10T19:32:23.381Z,20.28
2023-04-10T19:34:04.497Z,20.35
2023-04-10T19:35:41.050Z,21.31
2023-04-10T19:37:18.020Z,21.13
2023-04-10T19:38:55.126Z,22.81
2023-04-10T19:40:19.713Z,23.13
2023-04-10T19:42:04.821Z,22.64
2023-04-10T19:43:40.809Z,34.36
2023-04-10T19:58:17.043Z,25.02
2023-04-10T19:59:59.248Z,24.61
2023-04-10T20:01:33.975Z,21.65
2023-04-10T20:03:01.843Z,21.36
2023-04-10T20:04:22.633Z,21.05
2023-04-10T20:05:55.060Z,20.94
2023-04-10T20:07:27.268Z,22.95
2023-04-10T20:09:08.010Z,19.86
2023-04-10T20:10:30.654Z,21.09
2023-04-10T20:11:51.106Z,19.75
2023-04-10T20:13:22.637Z,18.39
2023-04-10T20:14:46.015Z,18.81
2023-04-10T20:16:37.426Z,33.64
2023-04-10T20:18:11.673Z,62.13
2023-04-10T20:19:46.379Z,53.24
2023-04-10T20:21:20.816Z,68.49
2023-04-10T20:22:43.773Z,57.14
2023-04-10T20:24:22.985Z,44.94
2023-04-10T20:25:54.823Z,45.08
2023-04-10T20:27:26.811Z,36.17
2023-04-10T20:28:59.712Z,35.60
2023-04-10T20:30:43.249Z,34.66
2023-04-10T20:32:14.818Z,31.50
2023-04-10T20:33:42.547Z,27.91
2023-04-10T20:35:04.534Z,24.48
2023-04-10T20:36:35.293Z,19.41
2023-04-10T20:38:09.588Z,24.94
2023-04-10T20:39:44.360Z,25.42
2023-04-10T20:41:37.184Z,24.74
2023-04-10T20:43:22.209Z,20.19
2023-04-10T20:44:54.755Z,20.17
2023-04-10T20:46:26.840Z,21.65
2023-04-10T20:47:59.035Z,22.02
2023-04-10T20:49:31.136Z,20.16
2023-04-10T20:51:05.267Z,21.27
2023-04-10T20:52:52.445Z,18.92
2023-04-10T20:54:22.561Z,17.42
2023-04-10T20:56:06.168Z,17.71
2023-04-10T20:57:38.517Z,18.67
2023-04-10T20:59:13.079Z,17.19
2023-04-10T21:00:55.302Z,17.88
2023-04-10T21:02:39.430Z,15.45
2023-04-10T21:04:28.038Z,15.44
2023-04-10T21:06:11.882Z,15.69
2023-04-10T21:07:45.196Z,17.96
2023-04-10T21:09:07.531Z,19.36
2023-04-10T21:10:39.495Z,24.96
2023-04-10T21:11:59.491Z,23.82
2023-04-10T21:13:35.077Z,23.43
2023-04-10T21:14:58.495Z,20.45
2023-04-10T21:16:38.737Z,20.74
2023-04-10T21:18:31.240Z,24.31
2023-04-10T21:20:14.606Z,23.90
2023-04-10T21:21:49.952Z,22.13
2023-04-10T21:23:33.627Z,19.85
2023-04-10T21:25:01.269Z,18.03
2023-04-10T21:26:53.539Z,16.31
2023-04-10T21:28:25.852Z,15.70
2023-04-10T21:29:46.521Z,15.18
2023-04-10T21:31:26.224Z,15.04
2023-04-10T21:32:48.937Z,16.45
2023-04-10T21:34:32.371Z,18.56
2023-04-10T21:36:07.245Z,19.31
2023-04-10T21:37:30.354Z,18.49
2023-04-10T21:39:13.686Z,17.97
2023-04-10T21:40:41.597Z,16.50
2023-04-10T21:42:09.450Z,14.54
2023-04-10T21:43:50.289Z,15.66
2023-04-10T21:45:34.049Z,14.99
2023-04-10T21:47:16.532Z,16.03
2023-04-10T21:48:56.649Z,16.57
2023-04-10T21:50:29.191Z,17.15
2023-04-10T21:52:01.028Z,17.26
2023-04-10T21:53:31.634Z,29.96
2023-04-10T21:55:06.459Z,27.91
2023-04-10T21:56:36.154Z,28.54
2023-04-10T21:58:09.137Z,36.42
2023-04-10T21:59:32.923Z,38.20
2023-04-10T22:00:53.719Z,38.69
2023-04-10T22:02:21.747Z,37.40
2023-04-10T22:03:45.640Z,33.80
2023-04-10T22:05:05.837Z,33.36
2023-04-10T22:06:26.059Z,34.44
2023-04-10T22:07:46.946Z,33.44
2023-04-10T22:09:18.800Z,43.62
2023-04-10T22:10:51.703Z,38.80
2023-04-10T22:12:23.763Z,36.47
2023-04-10T22:14:18.827Z,41.00
2023-04-10T22:16:12.902Z,28.69
2023-04-10T22:17:33.625Z,27.05
2023-04-10T22:19:05.442Z,30.88
2023-04-10T22:20:27.927Z,36.79
2023-04-10T22:21:50.834Z,36.43